createdAt,value
2022-10-10T00:02:23.799Z,99326.83
2022-10-10T00:04:56.261Z,99327.36
2022-10-10T00:07:30.237Z,99323.20
2022-10-10T00:10:02.657Z,99323.38
2022-10-10T00:12:34.743Z,99317.92
2022-10-10T00:15:07.840Z,99317.89
2022-10-10T00:17:40.518Z,99315.20
2022-10-10T00:20:13.408Z,99314.26
2022-10-10T00:22:45.686Z,99308.86
2022-10-10T00:25:18.076Z,99305.63
2022-10-10T00:27:50.096Z,99305.80
2022-10-10T00:30:22.309Z,99301.92
2022-10-10T00:32:55.038Z,99302.75
2022-10-10T00:35:27.616Z,99300.86
2022-10-10T00:38:00.739Z,99300.03
2022-10-10T00:40:33.372Z,99296.23
2022-10-10T00:43:05.953Z,99295.80
2022-10-10T00:45:43.392Z,99296.04
2022-10-10T00:48:19.777Z,99294.77
2022-10-10T00:50:56.916Z,99284.23
2022-10-10T00:53:33.301Z,99285.02
2022-10-10T00:56:08.702Z,99278.85
2022-10-10T00:58:44.130Z,99271.61
2022-10-10T01:01:17.162Z,99271.39
2022-10-10T01:03:49.698Z,99265.39
2022-10-10T01:06:22.093Z,99260.37
2022-10-10T01:08:54.554Z,99258.05
2022-10-10T01:11:43.018Z,99256.91
2022-10-10T01:14:27.736Z,99251.66
2022-10-10T01:17:08.304Z,99249.98
2022-10-10T01:20:08.203Z,99250.23
2022-10-10T01:22:51.081Z,99246.05
2022-10-10T01:25:30.905Z,99238.13
2022-10-10T01:28:09.156Z,99234.84
2022-10-10T01:30:43.611Z,99235.42
2022-10-10T01:33:26.048Z,99234.22
2022-10-10T01:36:03.829Z,99229.14
2022-10-10T01:38:43.892Z,99227.70
2022-10-10T01:41:19.692Z,99228.58
2022-10-10T01:43:56.298Z,99221.86
2022-10-10T01:46:28.443Z,99214.21
2022-10-10T01:49:01.742Z,99215.73
2022-10-10T01:51:53.229Z,99217.76
2022-10-10T01:54:39.039Z,99218.81
2022-10-10T01:57:22.802Z,99216.27
2022-10-10T02:00:05.495Z,99215.96
2022-10-10T02:02:52.201Z,99215.01
2022-10-10T02:05:31.059Z,99211.34
2022-10-10T02:08:07.646Z,99209.08
2022-10-10T02:10:44.896Z,99203.67
2022-10-10T02:13:19.303Z,99197.71
2022-10-10T02:15:55.004Z,99195.27
2022-10-10T02:18:33.673Z,99194.86
2022-10-10T02:21:12.490Z,99188.77
2022-10-10T02:23:46.991Z,99186.45
2022-10-10T02:26:23.210Z,99188.35
2022-10-10T02:28:58.685Z,99189.49
2022-10-10T02:31:39.375Z,99180.35
2022-10-10T02:34:11.661Z,99175.58
2022-10-10T02:36:47.824Z,99177.63
2022-10-10T02:39:22.293Z,99179.21
2022-10-10T02:41:55.496Z,99179.09
2022-10-10T02:44:28.524Z,99176.36
2022-10-10T02:47:00.904Z,99173.23
2022-10-10T02:49:35.051Z,99169.88
2022-10-10T02:52:07.466Z,99165.73
2022-10-10T02:54:39.725Z,99166.41
2022-10-10T02:57:12.407Z,99166.02
2022-10-10T02:59:44.418Z,99163.45
2022-10-10T03:02:16.410Z,99162.23
2022-10-10T03:04:50.346Z,99157.70
2022-10-10T03:07:22.656Z,99153.16
2022-10-10T03:09:54.944Z,99150.59
2022-10-10T03:12:27.019Z,99153.13
2022-10-10T03:14:59.032Z,99150.73
2022-10-10T03:17:31.292Z,99144.32
2022-10-10T03:20:03.842Z,99136.08
2022-10-10T03:22:35.823Z,99135.31
2022-10-10T03:25:09.277Z,99132.36
2022-10-10T03:27:41.557Z,99135.46
2022-10-10T03:30:14.934Z,99138.11
2022-10-10T03:32:47.032Z,99131.29
2022-10-10T03:35:19.224Z,99131.40
2022-10-10T03:37:51.264Z,99131.06
2022-10-10T03:40:23.483Z,99133.63
2022-10-10T03:42:55.568Z,99132.23
2022-10-10T03:45:27.897Z,99129.10
2022-10-10T03:48:02.117Z,99125.98
2022-10-10T03:50:33.782Z,99128.09
2022-10-10T03:53:05.843Z,99129.79
2022-10-10T03:55:40.138Z,99128.75
2022-10-10T03:58:12.448Z,99121.95
2022-10-10T04:00:44.622Z,99117.65
2022-10-10T04:03:16.553Z,99120.34
2022-10-10T04:05:48.512Z,99120.45
2022-10-10T04:08:20.901Z,99118.51
2022-10-10T04:10:54.154Z,99122.32
2022-10-10T04:13:27.593Z,99117.10
2022-10-10T04:15:59.507Z,99110.30
2022-10-10T04:18:31.525Z,99113.77
2022-10-10T04:21:06.068Z,99111.86
2022-10-10T04:23:38.389Z,99112.23
2022-10-10T04:26:12.747Z,99114.15
2022-10-10T04:28:44.855Z,99111.75
2022-10-10T04:31:17.052Z,99105.06
2022-10-10T04:33:49.276Z,99106.77
2022-10-10T04:36:21.256Z,99104.75
2022-10-10T04:38:53.664Z,99105.19
2022-10-10T04:41:25.716Z,99103.95
2022-10-10T04:43:58.025Z,99100.52
2022-10-10T04:46:30.084Z,99099.15
2022-10-10T04:49:04.948Z,99102.47
2022-10-10T04:51:37.518Z,99098.39
2022-10-10T04:54:10.074Z,99096.80
2022-10-10T04:56:43.037Z,99096.48
2022-10-10T04:59:15.639Z,99099.23
2022-10-10T05:01:47.564Z,99097.70
2022-10-10T05:04:19.589Z,99098.30
2022-10-10T05:06:51.601Z,99095.56
2022-10-10T05:09:23.646Z,99097.80
2022-10-10T05:11:55.650Z,99097.02
2022-10-10T05:14:27.790Z,99094.28
2022-10-10T05:16:59.735Z,99091.39
2022-10-10T05:19:31.807Z,99091.86
2022-10-10T05:22:03.709Z,99090.59
2022-10-10T05:24:35.838Z,99087.84
2022-10-10T05:27:07.792Z,99090.48
2022-10-10T05:29:39.681Z,99091.57
2022-10-10T05:32:11.681Z,99088.42
2022-10-10T05:34:44.267Z,99088.44
2022-10-10T05:37:17.013Z,99084.41
2022-10-10T05:39:53.757Z,99084.57
2022-10-10T05:42:26.656Z,99087.48
2022-10-10T05:44:58.943Z,99085.58
2022-10-10T05:47:31.107Z,99086.09
2022-10-10T05:50:03.938Z,99085.50
2022-10-10T05:52:36.374Z,99081.88
2022-10-10T05:55:09.464Z,99084.01
2022-10-10T05:57:41.417Z,99085.59
2022-10-10T06:00:15.253Z,99089.64
2022-10-10T06:02:47.873Z,99089.69
2022-10-10T06:05:20.290Z,99088.31
2022-10-10T06:08:05.716Z,99092.48
2022-10-10T06:10:44.506Z,99090.11
2022-10-10T06:13:23.108Z,99088.95
2022-10-10T06:15:56.546Z,99094.35
2022-10-10T06:18:28.576Z,99094.92
2022-10-10T06:21:04.776Z,99093.76
2022-10-10T06:23:40.136Z,99096.35
2022-10-10T06:26:12.816Z,99092.13
2022-10-10T06:28:44.844Z,99086.45
2022-10-10T06:31:17.952Z,99081.38
2022-10-10T06:33:50.164Z,99081.83
2022-10-10T06:36:22.073Z,99082.63
2022-10-10T06:38:55.375Z,99083.02
2022-10-10T06:41:27.353Z,99084.95
2022-10-10T06:43:59.903Z,99087.56
2022-10-10T06:46:34.370Z,99089.75
2022-10-10T06:49:06.412Z,99095.03
2022-10-10T06:51:39.441Z,99097.83
2022-10-10T06:54:12.143Z,99091.48
2022-10-10T06:56:44.206Z,99078.73
2022-10-10T06:59:16.178Z,99067.12
2022-10-10T07:01:50.269Z,99058.70
2022-10-10T07:04:22.166Z,99061.23
2022-10-10T07:06:54.430Z,99069.04
2022-10-10T07:09:26.664Z,99078.91
2022-10-10T07:11:58.546Z,99080.02
2022-10-10T07:14:30.432Z,99078.58
2022-10-10T07:17:03.221Z,99065.80
2022-10-10T07:19:37.245Z,99059.65
2022-10-10T07:22:09.217Z,99049.56
2022-10-10T07:24:41.221Z,99038.29
2022-10-10T07:27:13.648Z,99019.30
2022-10-10T07:29:45.816Z,99030.23
2022-10-10T07:32:18.066Z,99041.45
2022-10-10T07:34:51.021Z,99041.58
2022-10-10T07:37:23.062Z,99021.27
2022-10-10T07:39:56.867Z,99011.16
2022-10-10T07:42:29.137Z,99014.00
2022-10-10T07:45:18.932Z,99005.70
2022-10-10T07:48:03.090Z,98989.98
2022-10-10T07:50:35.256Z,98984.77
2022-10-10T07:53:08.108Z,98961.88
2022-10-10T07:55:43.025Z,98946.95
2022-10-10T07:58:15.692Z,98943.13
2022-10-10T08:00:47.668Z,98936.34
2022-10-10T08:03:20.163Z,98931.17
2022-10-10T08:05:52.097Z,98928.98
2022-10-10T08:08:24.033Z,98919.39
2022-10-10T08:10:55.948Z,98897.55
2022-10-10T08:13:28.538Z,98883.44
2022-10-10T08:16:03.130Z,98866.66
2022-10-10T08:18:41.293Z,98854.94
2022-10-10T08:21:15.377Z,98856.23
2022-10-10T08:23:47.711Z,98839.75
2022-10-10T08:26:48.194Z,98822.92
2022-10-10T08:29:20.374Z,98805.39
2022-10-10T08:31:52.638Z,98820.02
2022-10-10T08:34:24.851Z,98827.88
2022-10-10T08:36:57.137Z,98827.17
2022-10-10T08:39:31.779Z,98830.55
2022-10-10T08:42:04.928Z,98799.14
2022-10-10T08:44:41.523Z,98803.60
2022-10-10T08:47:20.157Z,98823.56
2022-10-10T08:49:55.453Z,98818.67
2022-10-10T08:52:33.318Z,98814.52
2022-10-10T08:55:08.907Z,98798.41
2022-10-10T08:57:48.775Z,98778.16
2022-10-10T09:00:25.100Z,98773.77
2022-10-10T09:03:00.760Z,98787.65
2022-10-10T09:05:50.844Z,98808.12
2022-10-10T09:08:37.949Z,98823.44
2022-10-10T09:11:23.144Z,98840.00
2022-10-10T09:14:08.682Z,98852.67
2022-10-10T09:16:47.073Z,98872.73
2022-10-10T09:19:29.846Z,98878.56
2022-10-10T09:22:06.080Z,98876.30
2022-10-10T09:24:43.622Z,98880.67
2022-10-10T09:27:23.770Z,98888.19
2022-10-10T09:30:00.527Z,98890.62
2022-10-10T09:32:37.396Z,98884.05
2022-10-10T09:35:20.386Z,98885.27
2022-10-10T09:37:57.868Z,98879.12
2022-10-10T09:40:33.759Z,98885.81
2022-10-10T09:43:15.564Z,98885.80
2022-10-10T09:45:52.469Z,98882.77
2022-10-10T09:48:28.691Z,98888.66
2022-10-10T09:51:01.495Z,98891.06
2022-10-10T09:53:34.714Z,98892.09
2022-10-10T09:56:09.422Z,98897.52
2022-10-10T09:58:44.433Z,98903.09
2022-10-10T10:01:21.100Z,98905.95
2022-10-10T10:04:28.178Z,98912.91
2022-10-10T10:07:19.441Z,98921.55
2022-10-10T10:09:53.386Z,98926.79
2022-10-10T10:12:31.016Z,98932.10
2022-10-10T10:15:06.403Z,98934.94
2022-10-10T10:17:38.367Z,98937.63
2022-10-10T10:20:35.266Z,98941.30
2022-10-10T10:23:23.345Z,98946.39
2022-10-10T10:26:02.876Z,98947.66
2022-10-10T10:28:41.020Z,98955.48
2022-10-10T10:31:26.674Z,98963.25
2022-10-10T10:34:16.083Z,98967.43
2022-10-10T10:36:56.949Z,98968.23
2022-10-10T10:39:44.343Z,98969.58
2022-10-10T10:42:29.135Z,98971.02
2022-10-10T10:45:11.117Z,98967.23
2022-10-10T10:47:54.312Z,98963.77
2022-10-10T10:50:42.997Z,98967.34
2022-10-10T10:53:29.867Z,98965.89
2022-10-10T10:56:12.398Z,98967.70
2022-10-10T10:59:41.718Z,98964.98
2022-10-10T11:02:54.272Z,98963.59
2022-10-10T11:05:42.059Z,98965.73
2022-10-10T11:08:29.345Z,98969.99
2022-10-10T11:11:14.287Z,98970.99
2022-10-10T11:19:56.805Z,98959.75
2022-10-10T11:23:32.825Z,98961.96
2022-10-10T11:30:20.953Z,98953.30
2022-10-10T11:42:55.007Z,98946.73
2022-10-10T11:50:18.824Z,98937.69
2022-10-10T11:54:44.720Z,98937.05
2022-10-10T12:42:52.688Z,98890.39
2022-10-10T12:46:33.462Z,98880.35
2022-10-10T13:02:38.270Z,98866.13
2022-10-10T13:05:31.922Z,98863.35
2022-10-10T13:08:07.077Z,98862.84
2022-10-10T13:11:22.167Z,98856.59
2022-10-10T13:23:07.098Z,98791.20
2022-10-10T13:26:45.500Z,98782.98
2022-10-10T13:38:09.793Z,98746.40
2022-10-10T13:40:43.122Z,98730.74
2022-10-10T13:43:18.300Z,98715.50
2022-10-10T13:46:39.754Z,98705.13
2022-10-10T13:54:48.541Z,98704.34
2022-10-10T14:13:26.388Z,98717.48
2022-10-10T14:17:21.402Z,98713.90
2022-10-10T14:20:00.498Z,98713.36
2022-10-10T14:22:32.582Z,98711.84
2022-10-10T14:29:59.747Z,98711.30
2022-10-10T14:32:38.207Z,98710.88
2022-10-10T14:35:53.678Z,98709.13
2022-10-10T14:38:26.105Z,98709.41
2022-10-10T14:40:58.252Z,98714.05
2022-10-10T14:43:43.434Z,98718.17
2022-10-10T14:47:07.992Z,98726.58
2022-10-10T14:49:58.963Z,98729.46
2022-10-10T14:53:18.856Z,98732.52
2022-10-10T14:55:55.949Z,98728.84
2022-10-10T14:59:47.219Z,98734.23
2022-10-10T15:12:11.988Z,98756.01
2022-10-10T15:15:25.988Z,98754.30
2022-10-10T15:17:59.683Z,98759.20
2022-10-10T15:28:48.636Z,98765.14
2022-10-10T15:31:35.937Z,98770.48
2022-10-10T15:34:46.237Z,98771.13
2022-10-10T15:37:18.795Z,98768.95
2022-10-10T15:39:50.826Z,98771.04
2022-10-10T15:54:50.755Z,98777.31
2022-10-10T15:58:00.388Z,98775.77
2022-10-10T16:00:32.627Z,98775.67
2022-10-10T16:03:11.035Z,98778.48
2022-10-10T16:10:19.000Z,98779.27
2022-10-10T16:18:29.454Z,98786.68
2022-10-10T16:21:02.133Z,98786.02
2022-10-10T16:23:35.828Z,98783.73
2022-10-10T16:26:17.517Z,98779.74
2022-10-10T16:29:40.368Z,98778.20
2022-10-10T16:37:03.541Z,98762.34
2022-10-10T16:40:02.879Z,98758.48
2022-10-10T16:42:41.889Z,98761.34
2022-10-10T16:45:14.774Z,98759.44
2022-10-10T16:47:53.821Z,98754.77
2022-10-10T16:50:25.956Z,98751.27
2022-10-10T16:53:04.901Z,98747.35
2022-10-10T17:09:19.085Z,98739.42
2022-10-10T17:11:51.619Z,98734.98
2022-10-10T17:20:01.419Z,98735.64
2022-10-10T17:27:14.081Z,98731.82
2022-10-10T17:29:46.220Z,98728.92
2022-10-10T17:32:18.432Z,98723.70
2022-10-10T17:34:56.834Z,98721.79
2022-10-10T17:37:29.699Z,98721.42
2022-10-10T17:44:13.588Z,98721.46
2022-10-10T17:47:36.379Z,98720.59
2022-10-10T17:50:10.908Z,98714.13
2022-10-10T17:57:56.789Z,98720.81
2022-10-10T18:00:29.173Z,98719.10
2022-10-10T18:07:57.528Z,98707.00
2022-10-10T18:10:30.353Z,98705.00
2022-10-10T18:13:09.571Z,98703.68
2022-10-10T18:15:41.841Z,98706.12
2022-10-10T18:23:07.015Z,98692.55
2022-10-10T18:30:49.466Z,98700.60
2022-10-10T18:38:25.507Z,98690.59
2022-10-10T18:45:34.668Z,98682.98
2022-10-10T18:48:12.988Z,98679.48
2022-10-10T18:55:39.781Z,98667.10
2022-10-10T18:58:25.393Z,98666.72
2022-10-10T19:09:48.365Z,98652.13
2022-10-10T19:16:41.027Z,98650.75
2022-10-10T19:19:14.228Z,98646.73
2022-10-10T19:21:48.133Z,98645.69
